Centennial Airport
KAPA : now visible

Airfield :











YOU CAN JOIN US ON...

 
LOGIN :

Register | Disclaimer

   EN    FR    IT 

 









Legend :    VFR   Marginal VFR   IFR   Intensive IFR   Very Intensive IFR
Visi :
Ceiling :
>= 8 km
>= 3000ft
5 to 8 km
1000 to 3000 ft
1500m to 5 km
500 to 1000 ft
800 to 1500m
200 to 500 ft
< 800m
< 200 ft
Symbols :   Thunderstorms  Fog  Heavy snow  Heavy precipitations  Wind > 20 kt






- Airport Elevation : 5885 ft


KAPA - Centennial

CURRENT METAR :
  • 282253Z 18012KT 10SM SCT110 BKN200 21/05 A3019 RMK AO2 WSHFT 2140 SLP177 T02110050

EXPIRED METARs :
  • 282200Z 18013KT 10SM SCT100 BKN120 BKN200 21/06 A3020 RMK AO2 WSHFT 2140 T02110056
  • 282053Z 10011G16KT 10SM FEW100 SCT140 BKN200 24/04 A3020 RMK AO2 SLP173 CB DSNT S AND W MOV E SHRA DSNT S T02440039 56012
  • 281958Z 04005G16KT 10SM FEW100 FEW140 SCT220 24/02 A3022 RMK AO2 CB DSNT SE AND SW MOV NE SHRA DSNT SW T02390022
  • 281953Z VRB05G16KT 10SM FEW100 FEW140 SCT220 23/02 A3021 RMK AO2 SLP180 CB DSNT SE AND SW MOV NE SHRA DSNT SW T02330017
  • 281853Z 04008KT 010V080 10SM FEW100 FEW140 FEW220 23/03 A3023 RMK AO2 SLP183 VIRGA DSNT W T02330028

TAF KAPA
Valid from the 29 at 00:00 until the 30 at 00:00 UTC


282340Z 2900/2924 17010KT P6SM SCT090 BKN140
FM290100 15010KT P6SM SCT090 BKN140
FM290600 18015KT P6SM FEW090 SCT140
FM291200 22010KT P6SM FEW090 SCT140
FM292000 16008KT P6SM VCTS FEW090 SCT140CB
TEMPO 2920/2924 VRB20G35KT
KZDV FIR / North America



MET'MAP, your aeronautical weather chart ! - Copyright ORBIFLY December 2007 - Disclaimer

ORBIFLY MET'MAP TEAM :

Programming & Development : Alexandra Zaïnal
Original concept : Baudouin d'Aumeries
Technical & hardware support : Manuel Goepfert
Assistance : Marc-Olivier Méhu




SOURCES & CREDITS :

   NOAA       Earth
Advisory